الصفحة الرئيسية
METAR-TAF:

METAR-TAF

مطار :

فولوس, اليونان

دائرة عرض: 39-13N, خط طول: 022-48E, ارتفاع: 25 متر

مراقبة الطقس الحالي

تاريخ ووقت الإصدار 23 دقيقة قبل الساعة 04:20UTC
ريح 9 عقدة من الشمال
درجة الحرارة 8°درجة مئوية
الرطوبة 81%
ضغط 1023 hPa
الرؤية: 6000 متر
غيوم متفرقة على ارتفاع 1000 قدم
غيوم مفككة على ارتفاع 2500 قدم
ملبد بالغيوم على ارتفاع 7000 قدم
مطر

METAR: LGBL 060420Z 01009KT 6000 RA SCT010 BKN025 OVC070 08/05 Q1023

زمن: 07:43 (04:43 UTC)

توقعات

تاريخ ووقت الإصدار 2ساعات و 43 دقيقة قبل الساعة 02:00UTC
التوقعات صالحة من06 الساعة 03 UTC إلى 06 الساعة 12 UTC
ريح 10 عقدة من الشمال الغربي
الرؤية 10 كم أو أكثر
غيوم متفرقة على ارتفاع 1000 قدم
غيوم مفككة على ارتفاع 2000 قدم
ملبد بالغيوم على ارتفاع 8000 قدم
مؤقت
من 06 الساعة 03 UTC إلى 06 الساعة 12 UTC
الرؤية: 5000 متر
مطر

TAF: LGBL 060200Z 0603/0612 32010KT 9999 SCT010 BKN020 OVC080 TEMPO 0603/0612 5000 RA

أرصاد الطقس والتوقعات من أكثر من 4000 مطار (تقارير الطقس للمطار METAR والتنبؤ بالطقس بالمطارTAF).

المحطات المتاحة هي النقط الصفراء والحمراء على الخريطة.

حرك المؤشر فوق النقطة لمعرفة اسم المحطة.

ثم انقر لمعرفة أرصاد وتوقعات الطقس.

لتغيير الخارطة: اضغط على الأزرار الخضراء مع رمز الصليب الأسود للتكبير. على الزر الأخضر مع شرطة للتصغير، أو على الأسهم الخضراء للخرائط المجاورة.


METAR-TAF: